createdAt,value
2022-08-29T00:00:47.411Z,22.64
2022-08-29T00:03:14.021Z,22.61
2022-08-29T00:05:42.462Z,22.54
2022-08-29T00:08:09.407Z,22.47
2022-08-29T00:10:37.886Z,22.49
2022-08-29T00:13:06.741Z,22.52
2022-08-29T00:15:44.637Z,22.40
2022-08-29T00:18:14.097Z,22.30
2022-08-29T00:20:41.869Z,22.33
2022-08-29T00:23:09.128Z,22.10
2022-08-29T00:25:35.988Z,22.12
2022-08-29T00:28:02.948Z,22.08
2022-08-29T00:30:30.053Z,22.15
2022-08-29T00:32:56.714Z,22.12
2022-08-29T00:35:27.426Z,22.13
2022-08-29T00:37:54.951Z,21.98
2022-08-29T00:40:29.664Z,22.05
2022-08-29T00:42:56.975Z,22.00
2022-08-29T00:45:24.567Z,21.98
2022-08-29T00:48:02.323Z,22.12
2022-08-29T00:50:33.954Z,22.09
2022-08-29T00:53:04.645Z,21.91
2022-08-29T00:55:35.290Z,21.81
2022-08-29T00:58:06.147Z,21.72
2022-08-29T01:00:33.121Z,21.86
2022-08-29T01:02:59.933Z,21.77
2022-08-29T01:05:27.082Z,21.83
2022-08-29T01:07:54.542Z,21.87
2022-08-29T01:10:40.547Z,21.82
2022-08-29T01:13:09.277Z,21.68
2022-08-29T01:15:37.127Z,21.57
2022-08-29T01:18:06.199Z,21.69
2022-08-29T01:20:49.938Z,21.57
2022-08-29T01:23:23.878Z,21.63
2022-08-29T01:25:51.545Z,21.76
2022-08-29T01:28:33.065Z,21.68
2022-08-29T01:31:09.354Z,21.64
2022-08-29T01:33:58.179Z,21.58
2022-08-29T01:36:32.336Z,21.31
2022-08-29T01:39:00.129Z,21.42
2022-08-29T01:41:28.180Z,21.46
2022-08-29T01:43:56.467Z,21.55
2022-08-29T01:46:27.265Z,21.24
2022-08-29T01:48:54.279Z,21.29
2022-08-29T01:51:21.437Z,21.15
2022-08-29T01:53:48.202Z,21.32
2022-08-29T01:56:17.187Z,21.26
2022-08-29T01:58:45.415Z,21.18
2022-08-29T02:01:15.421Z,21.11
2022-08-29T02:03:42.504Z,21.03
2022-08-29T02:06:10.373Z,21.15
2022-08-29T02:08:38.644Z,21.10
2022-08-29T02:11:09.928Z,21.13
2022-08-29T02:13:40.265Z,21.07
2022-08-29T02:16:07.563Z,21.07
2022-08-29T02:18:34.610Z,21.15
2022-08-29T02:21:01.792Z,21.10
2022-08-29T02:23:31.242Z,21.11
2022-08-29T02:25:58.601Z,21.13
2022-08-29T02:28:25.375Z,21.01
2022-08-29T02:30:56.658Z,20.90
2022-08-29T02:33:24.422Z,20.91
2022-08-29T02:35:52.052Z,20.87
2022-08-29T02:38:19.440Z,20.84
2022-08-29T02:40:47.655Z,20.99
2022-08-29T02:43:17.386Z,20.87
2022-08-29T02:45:44.189Z,20.72
2022-08-29T02:48:12.031Z,20.84
2022-08-29T02:50:45.233Z,20.64
2022-08-29T02:53:13.868Z,20.47
2022-08-29T02:55:40.661Z,20.65
2022-08-29T02:58:07.860Z,20.63
2022-08-29T03:00:35.902Z,20.61
2022-08-29T03:03:04.686Z,20.54
2022-08-29T03:05:37.107Z,20.62
2022-08-29T03:08:07.813Z,20.55
2022-08-29T03:10:35.644Z,20.55
2022-08-29T03:13:05.889Z,20.59
2022-08-29T03:15:32.890Z,20.46
2022-08-29T03:17:59.613Z,20.43
2022-08-29T03:20:27.320Z,20.22
2022-08-29T03:22:54.692Z,20.34
2022-08-29T03:25:22.651Z,20.42
2022-08-29T03:27:49.494Z,20.38
2022-08-29T03:30:17.463Z,20.32
2022-08-29T03:32:44.802Z,20.17
2022-08-29T03:35:13.308Z,20.37
2022-08-29T03:37:40.450Z,20.25
2022-08-29T03:40:08.561Z,20.28
2022-08-29T03:42:35.462Z,20.27
2022-08-29T03:45:05.336Z,20.15
2022-08-29T03:47:32.227Z,20.11
2022-08-29T03:49:58.913Z,20.15
2022-08-29T03:52:25.560Z,20.05
2022-08-29T03:54:52.428Z,20.32
2022-08-29T03:57:19.136Z,20.19
2022-08-29T03:59:46.087Z,19.95
2022-08-29T04:02:13.005Z,20.06
2022-08-29T04:04:58.160Z,20.03
2022-08-29T04:07:25.012Z,19.98
2022-08-29T04:09:51.653Z,19.99
2022-08-29T04:12:18.894Z,19.79
2022-08-29T04:14:45.577Z,19.88
2022-08-29T04:17:13.089Z,19.93
2022-08-29T04:19:39.999Z,19.78
2022-08-29T04:22:07.995Z,20.07
2022-08-29T04:24:35.278Z,20.10
2022-08-29T04:27:02.116Z,20.08
2022-08-29T04:29:29.259Z,20.07
2022-08-29T04:31:55.969Z,20.10
2022-08-29T04:34:23.041Z,19.85
2022-08-29T04:36:49.759Z,19.86
2022-08-29T04:39:16.628Z,19.80
2022-08-29T04:41:43.648Z,19.85
2022-08-29T04:44:11.947Z,19.70
2022-08-29T04:46:39.446Z,19.78
2022-08-29T04:49:06.277Z,19.70
2022-08-29T04:51:34.716Z,19.68
2022-08-29T04:54:01.724Z,19.87
2022-08-29T04:56:28.429Z,19.64
2022-08-29T04:58:56.436Z,19.65
2022-08-29T05:01:24.320Z,19.51
2022-08-29T05:03:54.226Z,19.51
2022-08-29T05:06:22.945Z,19.56
2022-08-29T05:08:59.083Z,19.63
2022-08-29T05:11:28.849Z,19.59
2022-08-29T05:13:55.619Z,19.64
2022-08-29T05:16:22.357Z,19.61
2022-08-29T05:18:49.301Z,19.58
2022-08-29T05:21:42.582Z,19.71
2022-08-29T05:24:11.720Z,19.69
2022-08-29T05:26:43.051Z,19.63
2022-08-29T05:29:12.078Z,19.73
2022-08-29T05:31:41.946Z,19.81
2022-08-29T05:34:16.287Z,19.82
2022-08-29T05:36:57.259Z,19.88
2022-08-29T05:39:23.970Z,19.95
2022-08-29T05:41:50.611Z,19.81
2022-08-29T05:44:17.309Z,19.78
2022-08-29T05:46:44.109Z,20.11
2022-08-29T05:49:10.801Z,20.29
2022-08-29T05:51:39.784Z,20.07
2022-08-29T05:54:07.276Z,20.06
2022-08-29T05:56:34.021Z,20.11
2022-08-29T05:59:00.869Z,20.08
2022-08-29T06:01:32.702Z,20.16
2022-08-29T06:04:00.832Z,20.20
2022-08-29T06:06:29.343Z,20.58
2022-08-29T06:08:57.490Z,20.62
2022-08-29T06:11:29.262Z,20.68
2022-08-29T06:13:56.532Z,20.55
2022-08-29T06:16:25.236Z,20.47
2022-08-29T06:18:52.395Z,20.42
2022-08-29T06:21:19.971Z,20.51
2022-08-29T06:23:47.626Z,20.57
2022-08-29T06:26:15.822Z,20.55
2022-08-29T06:28:47.522Z,20.83
2022-08-29T06:31:21.461Z,20.61
2022-08-29T06:33:51.692Z,20.66
2022-08-29T06:36:18.688Z,20.71
2022-08-29T06:38:45.545Z,20.74
2022-08-29T06:41:14.301Z,20.77
2022-08-29T06:43:42.024Z,20.89
2022-08-29T06:46:09.533Z,20.98
2022-08-29T06:48:36.246Z,20.93
2022-08-29T06:51:03.821Z,21.05
2022-08-29T06:53:32.511Z,21.09
2022-08-29T06:56:05.357Z,21.33
2022-08-29T06:58:32.883Z,21.23
2022-08-29T07:01:04.736Z,21.33
2022-08-29T07:03:31.429Z,21.37
2022-08-29T07:05:58.127Z,21.47
2022-08-29T07:08:24.924Z,21.66
2022-08-29T07:10:52.381Z,21.82
2022-08-29T07:13:18.991Z,21.94
2022-08-29T07:15:45.866Z,22.12
2022-08-29T07:18:12.661Z,22.13
2022-08-29T07:20:40.084Z,22.28
2022-08-29T07:23:08.126Z,22.13
2022-08-29T07:25:36.017Z,22.14
2022-08-29T07:28:03.541Z,22.45
2022-08-29T07:30:31.418Z,22.28
2022-08-29T07:32:58.591Z,22.62
2022-08-29T07:35:30.417Z,22.81
2022-08-29T07:38:00.977Z,22.98
2022-08-29T07:40:28.254Z,22.98
2022-08-29T07:42:54.927Z,22.95
2022-08-29T07:45:21.762Z,22.95
2022-08-29T07:47:48.475Z,23.05
2022-08-29T07:50:15.223Z,23.02
2022-08-29T07:52:42.061Z,23.08
2022-08-29T07:55:10.184Z,23.11
2022-08-29T07:57:40.009Z,23.15
2022-08-29T08:00:12.215Z,23.17
2022-08-29T08:02:41.658Z,23.14
2022-08-29T08:05:09.056Z,23.11
2022-08-29T08:07:36.694Z,23.21
2022-08-29T08:10:07.514Z,23.20
2022-08-29T08:12:34.369Z,22.87
2022-08-29T08:15:08.269Z,22.98
2022-08-29T08:17:35.204Z,23.21
2022-08-29T08:20:04.198Z,23.36
2022-08-29T08:22:30.905Z,23.71
2022-08-29T08:24:57.517Z,23.75
2022-08-29T08:27:24.309Z,23.74
2022-08-29T08:29:51.159Z,23.79
2022-08-29T08:32:19.939Z,23.65
2022-08-29T08:34:47.186Z,23.65
2022-08-29T08:37:19.453Z,23.65
2022-08-29T08:39:58.808Z,23.43
2022-08-29T08:42:31.510Z,23.53
2022-08-29T08:45:11.344Z,23.75
2022-08-29T08:47:47.589Z,23.90
2022-08-29T08:50:20.590Z,23.93
2022-08-29T08:52:58.638Z,23.86
2022-08-29T08:55:47.520Z,23.85
2022-08-29T08:58:34.574Z,24.05
2022-08-29T09:01:14.292Z,23.91
2022-08-29T09:03:50.221Z,23.86
2022-08-29T09:06:35.787Z,24.01
2022-08-29T09:09:14.502Z,24.11
2022-08-29T09:12:05.850Z,24.11
2022-08-29T09:15:00.395Z,24.50
2022-08-29T09:17:41.306Z,24.24
2022-08-29T09:20:16.905Z,24.31
2022-08-29T09:22:52.344Z,24.17
2022-08-29T09:25:18.983Z,24.28
2022-08-29T09:27:45.711Z,24.25
2022-08-29T09:30:20.545Z,24.27
2022-08-29T09:33:00.682Z,24.42
2022-08-29T09:35:48.841Z,24.52
2022-08-29T09:38:18.473Z,24.62
2022-08-29T09:41:04.001Z,24.64
2022-08-29T09:43:44.235Z,24.68
2022-08-29T09:46:11.189Z,24.61
2022-08-29T09:48:43.864Z,24.60
2022-08-29T09:51:16.259Z,24.41
2022-08-29T09:53:43.623Z,24.64
2022-08-29T09:56:18.992Z,24.78
2022-08-29T09:58:56.284Z,24.82
2022-08-29T10:01:27.605Z,24.88
2022-08-29T10:04:02.273Z,24.83
2022-08-29T10:06:33.203Z,24.83
2022-08-29T10:09:10.405Z,25.08
2022-08-29T10:11:56.577Z,25.04
2022-08-29T10:14:34.365Z,25.05
2022-08-29T10:17:25.388Z,25.05
2022-08-29T10:19:52.141Z,25.16
2022-08-29T10:22:30.699Z,25.13
2022-08-29T10:25:13.414Z,25.22
2022-08-29T10:28:08.409Z,25.10
2022-08-29T10:31:00.445Z,25.44
2022-08-29T10:33:54.898Z,25.41
2022-08-29T10:36:29.276Z,25.40
2022-08-29T10:39:17.058Z,25.49
2022-08-29T10:42:01.242Z,25.52
2022-08-29T10:44:48.209Z,25.44
2022-08-29T10:47:36.744Z,25.48
2022-08-29T10:50:43.074Z,25.67
2022-08-29T10:53:31.373Z,25.69
2022-08-29T10:56:06.446Z,25.65
2022-08-29T10:58:48.952Z,25.68
2022-08-29T11:01:29.560Z,25.78
2022-08-29T11:04:05.297Z,25.69
2022-08-29T11:06:44.619Z,25.80
2022-08-29T11:09:22.120Z,25.98
2022-08-29T11:12:06.351Z,25.94
2022-08-29T11:14:46.189Z,25.77
2022-08-29T11:17:16.465Z,25.99
2022-08-29T11:19:59.317Z,25.92
2022-08-29T11:23:05.721Z,26.00
2022-08-29T11:25:36.481Z,25.99
2022-08-29T11:28:34.721Z,25.91
2022-08-29T11:31:12.312Z,25.85
2022-08-29T11:33:57.459Z,25.83
2022-08-29T11:36:49.114Z,25.97
2022-08-29T11:39:24.840Z,26.03
2022-08-29T11:41:58.425Z,25.98
2022-08-29T11:44:37.356Z,26.04
2022-08-29T11:47:31.960Z,26.22
2022-08-29T11:50:16.063Z,26.12
2022-08-29T11:52:58.576Z,26.13
2022-08-29T11:55:39.350Z,26.30
2022-08-29T11:58:15.278Z,26.24
2022-08-29T12:00:51.632Z,26.16
2022-08-29T12:03:34.096Z,26.03
2022-08-29T12:06:04.871Z,25.76
2022-08-29T12:08:48.053Z,25.94
2022-08-29T12:11:14.827Z,25.99
2022-08-29T12:13:47.998Z,26.14
2022-08-29T12:16:18.210Z,26.26
2022-08-29T12:18:51.105Z,26.32
2022-08-29T12:21:46.981Z,26.21
2022-08-29T12:24:27.954Z,26.22
2022-08-29T12:26:55.055Z,26.47
2022-08-29T12:29:31.129Z,26.39
2022-08-29T12:32:23.027Z,26.51
2022-08-29T12:35:23.174Z,26.28
2022-08-29T12:38:18.363Z,26.23
2022-08-29T12:41:08.833Z,26.23
2022-08-29T12:43:45.499Z,26.10
2022-08-29T12:46:26.026Z,26.09
2022-08-29T12:49:02.832Z,26.27
2022-08-29T12:51:41.732Z,26.35
2022-08-29T12:54:11.433Z,26.26
2022-08-29T12:56:43.068Z,26.21
2022-08-29T12:59:18.023Z,26.39
2022-08-29T13:01:49.013Z,26.29
2022-08-29T13:04:19.771Z,26.43
2022-08-29T13:07:02.048Z,26.67
2022-08-29T13:09:31.707Z,26.46
2022-08-29T13:12:25.165Z,26.34
2022-08-29T13:14:54.854Z,26.37
2022-08-29T13:17:28.129Z,26.41
2022-08-29T13:20:32.434Z,26.56
2022-08-29T13:23:25.993Z,26.65
2022-08-29T13:26:02.433Z,26.84
2022-08-29T13:28:44.877Z,26.78
2022-08-29T13:31:11.591Z,26.99
2022-08-29T13:34:00.268Z,26.95
2022-08-29T13:36:26.868Z,27.13
2022-08-29T13:39:15.380Z,27.26
2022-08-29T13:41:46.421Z,27.37
2022-08-29T13:44:22.001Z,27.08
2022-08-29T13:46:52.145Z,27.16
2022-08-29T13:49:24.514Z,27.31
2022-08-29T13:51:51.543Z,27.54
2022-08-29T13:54:18.827Z,27.63
2022-08-29T13:56:52.303Z,27.83
2022-08-29T13:59:25.884Z,27.57
2022-08-29T14:02:10.225Z,27.87
2022-08-29T14:04:39.836Z,27.99
2022-08-29T14:07:09.209Z,28.20
2022-08-29T14:09:39.395Z,28.29
2022-08-29T14:12:06.869Z,28.46
2022-08-29T14:14:33.637Z,28.55
2022-08-29T14:17:00.649Z,28.62
2022-08-29T14:19:29.195Z,28.67
2022-08-29T14:21:59.106Z,29.02
2022-08-29T14:24:28.953Z,29.30
2022-08-29T14:26:59.510Z,29.43
2022-08-29T14:29:33.819Z,29.61
2022-08-29T14:32:03.030Z,29.76
2022-08-29T14:34:32.771Z,30.05
2022-08-29T14:37:01.244Z,30.12
2022-08-29T14:39:28.553Z,30.31
2022-08-29T14:41:55.764Z,30.37
2022-08-29T14:44:23.448Z,30.43
2022-08-29T14:46:51.398Z,30.49
2022-08-29T14:49:18.961Z,30.82
2022-08-29T14:51:45.656Z,30.97
2022-08-29T14:54:13.151Z,31.38
2022-08-29T14:56:50.045Z,31.59
2022-08-29T14:59:18.953Z,31.75
2022-08-29T15:01:49.918Z,31.79
2022-08-29T15:04:21.817Z,32.60
2022-08-29T15:07:02.633Z,33.19
2022-08-29T15:09:29.339Z,33.56
2022-08-29T15:11:56.042Z,33.84
2022-08-29T15:14:23.101Z,33.82
2022-08-29T15:16:49.754Z,34.06
2022-08-29T15:22:05.416Z,33.65
2022-08-29T15:24:32.854Z,32.16
2022-08-29T15:26:59.870Z,31.34
2022-08-29T15:29:27.586Z,30.81
2022-08-29T15:31:57.195Z,30.29
2022-08-29T15:34:25.899Z,29.49
2022-08-29T15:36:54.240Z,29.41
2022-08-29T15:39:21.997Z,29.33
2022-08-29T15:41:48.658Z,29.12
2022-08-29T15:44:15.733Z,29.14
2022-08-29T15:46:47.895Z,28.82
2022-08-29T15:49:19.359Z,28.62
2022-08-29T15:51:46.498Z,28.30
2022-08-29T15:54:14.296Z,28.29
2022-08-29T15:56:41.548Z,28.50
2022-08-29T15:59:10.769Z,28.41
2022-08-29T16:01:52.200Z,28.25
2022-08-29T16:04:22.189Z,28.13
2022-08-29T16:06:50.162Z,28.08
2022-08-29T16:09:17.538Z,28.19
2022-08-29T16:11:45.352Z,28.13
2022-08-29T16:16:59.506Z,28.07
2022-08-29T16:19:26.123Z,28.04
2022-08-29T16:21:53.718Z,28.04
2022-08-29T16:24:21.801Z,27.88
2022-08-29T16:26:48.742Z,28.00
2022-08-29T16:29:15.457Z,27.90
2022-08-29T16:31:53.953Z,27.78
2022-08-29T16:34:22.164Z,27.78
2022-08-29T16:36:48.968Z,27.76
2022-08-29T16:39:15.836Z,27.80
2022-08-29T16:41:45.217Z,27.84
2022-08-29T16:44:11.861Z,27.83
2022-08-29T16:46:38.588Z,27.80
2022-08-29T16:49:05.616Z,27.71
2022-08-29T16:51:32.276Z,27.71
2022-08-29T16:54:02.468Z,27.66
2022-08-29T16:56:29.180Z,27.62
2022-08-29T16:58:59.443Z,27.56
2022-08-29T17:01:34.423Z,27.56
2022-08-29T17:04:02.749Z,27.48
2022-08-29T17:06:31.124Z,27.47
2022-08-29T17:08:58.711Z,27.48
2022-08-29T17:11:25.811Z,27.44
2022-08-29T17:13:54.076Z,27.49
2022-08-29T17:16:21.682Z,27.38
2022-08-29T17:18:49.145Z,27.35
2022-08-29T17:21:16.469Z,27.23
2022-08-29T17:23:44.147Z,27.19
2022-08-29T17:26:13.060Z,27.15
2022-08-29T17:28:40.083Z,27.16
2022-08-29T17:31:07.606Z,27.13
2022-08-29T17:33:34.460Z,27.11
2022-08-29T17:36:01.447Z,27.05
2022-08-29T17:38:28.524Z,27.10
2022-08-29T17:40:59.193Z,27.07
2022-08-29T17:43:27.353Z,27.01
2022-08-29T17:45:54.858Z,27.02
2022-08-29T17:48:22.522Z,26.97
2022-08-29T17:50:50.027Z,26.89
2022-08-29T17:53:18.651Z,26.84
2022-08-29T17:55:46.250Z,26.79
2022-08-29T17:58:14.538Z,26.76
2022-08-29T18:00:41.235Z,26.66
2022-08-29T18:03:10.434Z,26.69
2022-08-29T18:05:37.945Z,26.74
2022-08-29T18:08:05.959Z,26.71
2022-08-29T18:10:32.857Z,26.61
2022-08-29T18:12:59.767Z,26.55
2022-08-29T18:15:26.516Z,26.51
2022-08-29T18:17:54.201Z,26.44
2022-08-29T18:20:23.310Z,26.42
2022-08-29T18:22:50.670Z,26.52
2022-08-29T18:25:22.210Z,26.41
2022-08-29T18:27:50.328Z,26.31
2022-08-29T18:30:17.305Z,26.34
2022-08-29T18:32:44.083Z,26.28
2022-08-29T18:35:11.069Z,26.21
2022-08-29T18:37:37.819Z,26.19
2022-08-29T18:40:08.078Z,26.15
2022-08-29T18:42:40.904Z,26.15
2022-08-29T18:45:08.305Z,26.09
2022-08-29T18:47:35.112Z,26.05
2022-08-29T18:50:20.781Z,26.04
2022-08-29T18:52:52.729Z,26.04
2022-08-29T18:55:19.766Z,25.98
2022-08-29T18:57:48.133Z,25.90
2022-08-29T19:00:16.187Z,25.96
2022-08-29T19:02:43.564Z,25.88
2022-08-29T19:05:11.051Z,25.83
2022-08-29T19:07:38.719Z,25.78
2022-08-29T19:10:06.805Z,25.93
2022-08-29T19:12:33.740Z,25.80
2022-08-29T19:15:00.524Z,25.88
2022-08-29T19:17:27.221Z,25.83
2022-08-29T19:20:12.579Z,25.82
2022-08-29T19:22:39.442Z,25.73
2022-08-29T19:25:08.599Z,25.73
2022-08-29T19:27:43.669Z,25.80
2022-08-29T19:30:14.750Z,25.73
2022-08-29T19:32:41.451Z,25.74
2022-08-29T19:35:12.884Z,25.73
2022-08-29T19:37:41.944Z,25.68
2022-08-29T19:40:10.951Z,25.86
2022-08-29T19:42:38.506Z,25.76
2022-08-29T19:45:08.161Z,25.60
2022-08-29T19:47:35.032Z,25.60
2022-08-29T19:50:02.367Z,25.57
2022-08-29T19:52:31.408Z,25.54
2022-08-29T19:55:00.140Z,25.56
2022-08-29T19:57:28.079Z,25.69
2022-08-29T19:59:54.814Z,25.62
2022-08-29T20:02:21.764Z,25.55
2022-08-29T20:04:48.613Z,25.46
2022-08-29T20:07:15.260Z,25.45
2022-08-29T20:09:42.549Z,25.42
2022-08-29T20:12:09.931Z,25.42
2022-08-29T20:14:37.342Z,25.38
2022-08-29T20:17:09.538Z,25.36
2022-08-29T20:19:37.492Z,25.43
2022-08-29T20:22:07.211Z,25.42
2022-08-29T20:24:34.661Z,25.32
2022-08-29T20:27:02.892Z,25.28
2022-08-29T20:29:30.391Z,25.31
2022-08-29T20:31:58.874Z,25.30
2022-08-29T20:34:29.657Z,25.28
2022-08-29T20:37:08.963Z,25.37
2022-08-29T20:39:49.176Z,25.26
2022-08-29T20:42:20.277Z,25.27
2022-08-29T20:44:48.401Z,25.26
2022-08-29T20:47:18.258Z,25.17
2022-08-29T20:49:46.691Z,25.19
2022-08-29T20:52:17.546Z,25.14
2022-08-29T20:54:46.205Z,25.09
2022-08-29T20:57:14.853Z,25.17
2022-08-29T20:59:42.804Z,25.15
2022-08-29T21:02:10.469Z,25.09
2022-08-29T21:04:56.261Z,25.06
2022-08-29T21:07:23.208Z,25.06
2022-08-29T21:09:50.370Z,25.02
2022-08-29T21:12:18.806Z,25.04
2022-08-29T21:14:46.243Z,24.99
2022-08-29T21:17:13.680Z,24.99
2022-08-29T21:19:41.368Z,24.96
2022-08-29T21:22:09.376Z,24.90
2022-08-29T21:24:36.481Z,25.01
2022-08-29T21:27:03.181Z,24.92
2022-08-29T21:29:29.937Z,24.97
2022-08-29T21:31:57.869Z,24.93
2022-08-29T21:34:25.235Z,24.87
2022-08-29T21:36:52.035Z,24.84
2022-08-29T21:39:28.607Z,24.92
2022-08-29T21:41:57.179Z,24.91
2022-08-29T21:44:23.879Z,24.87
2022-08-29T21:46:50.701Z,24.77
2022-08-29T21:49:21.674Z,24.87
2022-08-29T21:51:48.823Z,24.86
2022-08-29T21:54:17.274Z,24.88
2022-08-29T21:56:45.021Z,24.90
2022-08-29T21:59:14.057Z,24.81
2022-08-29T22:01:41.540Z,24.93
2022-08-29T22:04:11.263Z,24.77
2022-08-29T22:06:46.776Z,24.78
2022-08-29T22:09:19.479Z,24.69
2022-08-29T22:11:48.710Z,24.69
2022-08-29T22:14:15.387Z,24.68
2022-08-29T22:16:42.132Z,24.58
2022-08-29T22:19:12.022Z,24.60
2022-08-29T22:21:47.035Z,24.57
2022-08-29T22:24:15.216Z,24.66
2022-08-29T22:26:42.651Z,24.53
2022-08-29T22:29:11.783Z,24.49
2022-08-29T22:31:42.275Z,24.55
2022-08-29T22:34:11.059Z,24.56
2022-08-29T22:36:37.748Z,24.51
2022-08-29T22:39:05.373Z,24.55
2022-08-29T22:41:32.368Z,24.55
2022-08-29T22:46:47.896Z,24.50
2022-08-29T22:49:14.642Z,24.64
2022-08-29T22:51:41.299Z,24.55
2022-08-29T22:54:26.635Z,24.47
2022-08-29T22:56:54.493Z,24.36
2022-08-29T22:59:21.994Z,24.43
2022-08-29T23:01:49.228Z,24.35
2022-08-29T23:04:16.339Z,24.36
2022-08-29T23:06:43.275Z,24.24
2022-08-29T23:09:10.465Z,24.19
2022-08-29T23:11:37.223Z,24.28
2022-08-29T23:14:04.425Z,24.28
2022-08-29T23:16:32.937Z,24.26
2022-08-29T23:19:03.496Z,24.28
2022-08-29T23:21:31.974Z,24.29
2022-08-29T23:23:59.179Z,24.22
2022-08-29T23:26:26.977Z,24.17
2022-08-29T23:28:54.013Z,24.16
2022-08-29T23:31:22.621Z,23.91
2022-08-29T23:33:49.470Z,24.02
2022-08-29T23:36:16.220Z,24.03
2022-08-29T23:38:43.357Z,24.06
2022-08-29T23:41:10.858Z,24.15
2022-08-29T23:43:37.575Z,23.92
2022-08-29T23:46:05.046Z,23.96
2022-08-29T23:48:33.218Z,24.01
2022-08-29T23:51:04.122Z,24.02
2022-08-29T23:53:30.897Z,23.94
2022-08-29T23:55:57.539Z,23.92
2022-08-29T23:58:24.138Z,23.85
